sensor_id;sensor_type;location;lat;lon;timestamp;pressure;altitude;pressure_sealevel;temperature;humidity
64713;BME280;51140;45.340;5.980;2023-03-20T00:00:24;97137.44;;;8.57;100.00
64713;BME280;51140;45.340;5.980;2023-03-20T00:02:50;97157.66;;;8.66;100.00
64713;BME280;51140;45.340;5.980;2023-03-20T00:05:19;97154.97;;;8.67;100.00
64713;BME280;51140;45.340;5.980;2023-03-20T00:07:48;97156.44;;;8.71;100.00
64713;BME280;51140;45.340;5.980;2023-03-20T00:10:16;97151.63;;;8.79;100.00
64713;BME280;51140;45.340;5.980;2023-03-20T00:12:42;97163.88;;;8.77;100.00
64713;BME280;51140;45.340;5.980;2023-03-20T00:15:31;97166.47;;;8.63;100.00
64713;BME280;51140;45.340;5.980;2023-03-20T00:17:57;97178.69;;;8.61;100.00
64713;BME280;51140;45.340;5.980;2023-03-20T00:20:23;97205.97;;;8.68;100.00
64713;BME280;51140;45.340;5.980;2023-03-20T00:22:49;97202.44;;;8.69;100.00
64713;BME280;51140;45.340;5.980;2023-03-20T00:25:21;97201.59;;;8.69;100.00
64713;BME280;51140;45.340;5.980;2023-03-20T00:27:48;97187.59;;;8.57;100.00
64713;BME280;51140;45.340;5.980;2023-03-20T00:30:25;97186.47;;;8.47;100.00
64713;BME280;51140;45.340;5.980;2023-03-20T00:32:53;97187.91;;;8.37;100.00
64713;BME280;51140;45.340;5.980;2023-03-20T00:35:20;97188.66;;;8.39;100.00
64713;BME280;51140;45.340;5.980;2023-03-20T00:37:47;97204.28;;;8.67;100.00
64713;BME280;51140;45.340;5.980;2023-03-20T00:40:13;97192.78;;;8.43;100.00
64713;BME280;51140;45.340;5.980;2023-03-20T00:42:39;97215.72;;;8.35;100.00
64713;BME280;51140;45.340;5.980;2023-03-20T00:45:07;97210.09;;;8.27;100.00
64713;BME280;51140;45.340;5.980;2023-03-20T00:47:36;97196.91;;;8.15;100.00
64713;BME280;51140;45.340;5.980;2023-03-20T00:50:13;97199.50;;;8.15;100.00
64713;BME280;51140;45.340;5.980;2023-03-20T00:52:40;97190.72;;;8.18;100.00
64713;BME280;51140;45.340;5.980;2023-03-20T00:55:05;97206.47;;;8.29;100.00
64713;BME280;51140;45.340;5.980;2023-03-20T00:57:41;97211.75;;;8.28;100.00
64713;BME280;51140;45.340;5.980;2023-03-20T01:02:54;97216.38;;;8.23;100.00
64713;BME280;51140;45.340;5.980;2023-03-20T01:05:22;97219.34;;;8.16;100.00
64713;BME280;51140;45.340;5.980;2023-03-20T01:07:48;97235.28;;;8.25;100.00
64713;BME280;51140;45.340;5.980;2023-03-20T01:10:14;97228.44;;;8.24;100.00
64713;BME280;51140;45.340;5.980;2023-03-20T01:12:40;97225.75;;;8.25;100.00
64713;BME280;51140;45.340;5.980;2023-03-20T01:15:21;97224.69;;;8.13;100.00
64713;BME280;51140;45.340;5.980;2023-03-20T01:17:48;97240.75;;;8.20;100.00
64713;BME280;51140;45.340;5.980;2023-03-20T01:20:20;97239.03;;;8.05;100.00
64713;BME280;51140;45.340;5.980;2023-03-20T01:22:47;97244.88;;;8.08;100.00
64713;BME280;51140;45.340;5.980;2023-03-20T01:25:13;97250.53;;;8.15;100.00
64713;BME280;51140;45.340;5.980;2023-03-20T01:27:38;97247.47;;;8.08;100.00
64713;BME280;51140;45.340;5.980;2023-03-20T01:30:15;97239.84;;;8.05;100.00
64713;BME280;51140;45.340;5.980;2023-03-20T01:32:41;97244.28;;;8.03;100.00
64713;BME280;51140;45.340;5.980;2023-03-20T01:35:11;97261.34;;;8.07;100.00
64713;BME280;51140;45.340;5.980;2023-03-20T01:37:37;97257.25;;;8.03;100.00
64713;BME280;51140;45.340;5.980;2023-03-20T01:40:03;97259.84;;;8.03;100.00
64713;BME280;51140;45.340;5.980;2023-03-20T01:42:29;97280.44;;;8.06;100.00
64713;BME280;51140;45.340;5.980;2023-03-20T01:44:54;97279.09;;;8.15;100.00
64713;BME280;51140;45.340;5.980;2023-03-20T01:47:22;97293.06;;;8.12;100.00
64713;BME280;51140;45.340;5.980;2023-03-20T01:52:45;97311.72;;;8.03;100.00
64713;BME280;51140;45.340;5.980;2023-03-20T01:55:11;97318.50;;;8.06;100.00
64713;BME280;51140;45.340;5.980;2023-03-20T01:57:37;97318.81;;;8.00;100.00
64713;BME280;51140;45.340;5.980;2023-03-20T02:00:12;97306.47;;;8.05;100.00
64713;BME280;51140;45.340;5.980;2023-03-20T02:02:39;97310.38;;;7.96;100.00
64713;BME280;51140;45.340;5.980;2023-03-20T02:05:07;97324.34;;;8.09;100.00
64713;BME280;51140;45.340;5.980;2023-03-20T02:07:35;97328.78;;;7.92;100.00
64713;BME280;51140;45.340;5.980;2023-03-20T02:10:08;97323.09;;;7.85;100.00
64713;BME280;51140;45.340;5.980;2023-03-20T02:12:34;97330.44;;;7.77;100.00
64713;BME280;51140;45.340;5.980;2023-03-20T02:15:00;97346.34;;;7.86;100.00
64713;BME280;51140;45.340;5.980;2023-03-20T02:17:26;97359.53;;;7.82;100.00
64713;BME280;51140;45.340;5.980;2023-03-20T02:20:09;97359.97;;;7.90;100.00
64713;BME280;51140;45.340;5.980;2023-03-20T02:45:24;97391.91;;;7.75;100.00
64713;BME280;51140;45.340;5.980;2023-03-20T02:50:46;97427.31;;;7.92;100.00
64713;BME280;51140;45.340;5.980;2023-03-20T02:58:50;97445.13;;;7.98;100.00
64713;BME280;51140;45.340;5.980;2023-03-20T03:01:23;97422.56;;;7.67;100.00
64713;BME280;51140;45.340;5.980;2023-03-20T03:04:25;97432.78;;;7.70;100.00
64713;BME280;51140;45.340;5.980;2023-03-20T03:06:51;97430.50;;;7.64;100.00
64713;BME280;51140;45.340;5.980;2023-03-20T03:09:35;97449.03;;;7.73;100.00
64713;BME280;51140;45.340;5.980;2023-03-20T03:12:25;97458.19;;;7.96;100.00
64713;BME280;51140;45.340;5.980;2023-03-20T03:14:55;97462.91;;;8.05;100.00
64713;BME280;51140;45.340;5.980;2023-03-20T03:17:24;97491.53;;;8.04;100.00
64713;BME280;51140;45.340;5.980;2023-03-20T03:19:55;97541.81;;;7.84;100.00
64713;BME280;51140;45.340;5.980;2023-03-20T03:22:22;97564.53;;;7.96;100.00
64713;BME280;51140;45.340;5.980;2023-03-20T03:24:50;97567.72;;;7.84;100.00
64713;BME280;51140;45.340;5.980;2023-03-20T03:27:52;97563.91;;;7.91;100.00
64713;BME280;51140;45.340;5.980;2023-03-20T03:30:27;97567.59;;;7.70;100.00
64713;BME280;51140;45.340;5.980;2023-03-20T03:33:08;97573.31;;;7.76;100.00
64713;BME280;51140;45.340;5.980;2023-03-20T03:35:37;97560.91;;;7.47;100.00
64713;BME280;51140;45.340;5.980;2023-03-20T03:43:15;97569.06;;;7.39;100.00
64713;BME280;51140;45.340;5.980;2023-03-20T03:45:46;97565.72;;;7.37;100.00
64713;BME280;51140;45.340;5.980;2023-03-20T03:48:17;97568.22;;;7.39;100.00
64713;BME280;51140;45.340;5.980;2023-03-20T03:50:48;97549.78;;;7.09;100.00
64713;BME280;51140;45.340;5.980;2023-03-20T03:53:20;97557.72;;;7.06;100.00
64713;BME280;51140;45.340;5.980;2023-03-20T03:55:53;97579.91;;;6.74;100.00
64713;BME280;51140;45.340;5.980;2023-03-20T04:00:51;97615.59;;;7.05;100.00
64713;BME280;51140;45.340;5.980;2023-03-20T04:03:20;97625.25;;;7.20;100.00
64713;BME280;51140;45.340;5.980;2023-03-20T04:05:51;97613.69;;;7.08;100.00
64713;BME280;51140;45.340;5.980;2023-03-20T04:08:17;97622.72;;;7.18;100.00
64713;BME280;51140;45.340;5.980;2023-03-20T04:10:43;97651.44;;;7.33;100.00
64713;BME280;51140;45.340;5.980;2023-03-20T04:13:08;97658.78;;;7.42;100.00
64713;BME280;51140;45.340;5.980;2023-03-20T04:15:34;97651.16;;;7.39;100.00
64713;BME280;51140;45.340;5.980;2023-03-20T04:17:59;97671.00;;;7.57;100.00
64713;BME280;51140;45.340;5.980;2023-03-20T04:20:25;97658.81;;;7.59;100.00
64713;BME280;51140;45.340;5.980;2023-03-20T04:22:50;97681.38;;;7.57;100.00
64713;BME280;51140;45.340;5.980;2023-03-20T04:25:21;97673.22;;;7.29;100.00
64713;BME280;51140;45.340;5.980;2023-03-20T04:27:47;97694.69;;;7.49;100.00
64713;BME280;51140;45.340;5.980;2023-03-20T04:30:13;97702.53;;;7.48;100.00
64713;BME280;51140;45.340;5.980;2023-03-20T04:32:38;97708.00;;;7.42;100.00
64713;BME280;51140;45.340;5.980;2023-03-20T04:35:04;97735.31;;;7.49;100.00
64713;BME280;51140;45.340;5.980;2023-03-20T04:37:30;97721.88;;;7.41;100.00
64713;BME280;51140;45.340;5.980;2023-03-20T04:39:55;97717.25;;;7.29;100.00
64713;BME280;51140;45.340;5.980;2023-03-20T04:42:21;97723.44;;;7.26;100.00
64713;BME280;51140;45.340;5.980;2023-03-20T04:44:46;97723.50;;;7.25;100.00
64713;BME280;51140;45.340;5.980;2023-03-20T04:47:11;97736.84;;;7.15;100.00
64713;BME280;51140;45.340;5.980;2023-03-20T04:49:37;97751.84;;;7.28;100.00
64713;BME280;51140;45.340;5.980;2023-03-20T04:52:03;97759.56;;;7.29;100.00
64713;BME280;51140;45.340;5.980;2023-03-20T04:54:28;97754.38;;;7.29;100.00
64713;BME280;51140;45.340;5.980;2023-03-20T04:56:53;97764.88;;;7.45;100.00
64713;BME280;51140;45.340;5.980;2023-03-20T04:59:19;97774.63;;;7.40;100.00
64713;BME280;51140;45.340;5.980;2023-03-20T05:01:44;97790.09;;;7.41;100.00
64713;BME280;51140;45.340;5.980;2023-03-20T05:04:10;97794.28;;;7.44;100.00
64713;BME280;51140;45.340;5.980;2023-03-20T05:06:36;97791.78;;;7.42;100.00
64713;BME280;51140;45.340;5.980;2023-03-20T05:09:01;97811.50;;;7.65;100.00
64713;BME280;51140;45.340;5.980;2023-03-20T05:11:27;97813.19;;;7.66;100.00
64713;BME280;51140;45.340;5.980;2023-03-20T05:13:52;97853.75;;;7.67;100.00
64713;BME280;51140;45.340;5.980;2023-03-20T05:16:18;97880.16;;;7.94;100.00
64713;BME280;51140;45.340;5.980;2023-03-20T05:18:44;97869.16;;;7.89;100.00
64713;BME280;51140;45.340;5.980;2023-03-20T05:21:09;97867.97;;;7.96;100.00
64713;BME280;51140;45.340;5.980;2023-03-20T05:23:35;97893.78;;;8.18;100.00
64713;BME280;51140;45.340;5.980;2023-03-20T05:26:00;97868.28;;;8.09;100.00
64713;BME280;51140;45.340;5.980;2023-03-20T05:28:26;97861.72;;;8.00;100.00
64713;BME280;51140;45.340;5.980;2023-03-20T05:30:52;97892.13;;;8.36;100.00
64713;BME280;51140;45.340;5.980;2023-03-20T05:33:17;97890.44;;;8.35;100.00
64713;BME280;51140;45.340;5.980;2023-03-20T05:35:42;97874.63;;;8.21;100.00
64713;BME280;51140;45.340;5.980;2023-03-20T05:38:08;97880.13;;;8.33;100.00
64713;BME280;51140;45.340;5.980;2023-03-20T05:40:33;97887.00;;;8.34;100.00
64713;BME280;51140;45.340;5.980;2023-03-20T05:42:59;97887.22;;;8.48;100.00
64713;BME280;51140;45.340;5.980;2023-03-20T05:45:24;97884.31;;;8.36;100.00
64713;BME280;51140;45.340;5.980;2023-03-20T05:47:49;97872.25;;;8.35;100.00
64713;BME280;51140;45.340;5.980;2023-03-20T05:50:15;97862.31;;;8.44;100.00
64713;BME280;51140;45.340;5.980;2023-03-20T05:52:40;97866.38;;;8.50;100.00
64713;BME280;51140;45.340;5.980;2023-03-20T05:55:06;97833.59;;;8.29;100.00
64713;BME280;51140;45.340;5.980;2023-03-20T05:57:31;97825.56;;;8.16;100.00
64713;BME280;51140;45.340;5.980;2023-03-20T05:59:57;97804.72;;;7.99;100.00
64713;BME280;51140;45.340;5.980;2023-03-20T06:02:22;97787.66;;;7.76;100.00
64713;BME280;51140;45.340;5.980;2023-03-20T06:04:48;97789.06;;;7.83;100.00
64713;BME280;51140;45.340;5.980;2023-03-20T06:07:13;97784.94;;;7.79;100.00
64713;BME280;51140;45.340;5.980;2023-03-20T06:09:39;97787.09;;;8.07;100.00
64713;BME280;51140;45.340;5.980;2023-03-20T06:12:05;97753.38;;;7.88;100.00
64713;BME280;51140;45.340;5.980;2023-03-20T06:14:30;97759.81;;;7.98;100.00
64713;BME280;51140;45.340;5.980;2023-03-20T06:16:56;97781.53;;;8.32;100.00
64713;BME280;51140;45.340;5.980;2023-03-20T06:19:22;97763.97;;;8.20;100.00
64713;BME280;51140;45.340;5.980;2023-03-20T06:21:48;97743.69;;;7.92;100.00
64713;BME280;51140;45.340;5.980;2023-03-20T06:24:14;97747.91;;;7.94;100.00
64713;BME280;51140;45.340;5.980;2023-03-20T06:26:40;97745.66;;;8.05;100.00
64713;BME280;51140;45.340;5.980;2023-03-20T06:29:05;97759.75;;;8.36;100.00
64713;BME280;51140;45.340;5.980;2023-03-20T06:31:31;97717.34;;;8.01;100.00
64713;BME280;51140;45.340;5.980;2023-03-20T06:33:56;97726.59;;;8.24;100.00
64713;BME280;51140;45.340;5.980;2023-03-20T06:36:22;97715.06;;;8.12;100.00
64713;BME280;51140;45.340;5.980;2023-03-20T06:38:48;97716.13;;;8.25;100.00
64713;BME280;51140;45.340;5.980;2023-03-20T06:41:13;97717.31;;;8.37;100.00
64713;BME280;51140;45.340;5.980;2023-03-20T06:43:38;97699.91;;;8.56;100.00
64713;BME280;51140;45.340;5.980;2023-03-20T06:46:05;97673.63;;;8.28;100.00
64713;BME280;51140;45.340;5.980;2023-03-20T06:48:31;97661.13;;;8.18;100.00
64713;BME280;51140;45.340;5.980;2023-03-20T06:50:57;97676.00;;;8.67;100.00
64713;BME280;51140;45.340;5.980;2023-03-20T06:53:22;97673.53;;;8.81;100.00
64713;BME280;51140;45.340;5.980;2023-03-20T06:55:50;97654.13;;;8.71;100.00
64713;BME280;51140;45.340;5.980;2023-03-20T06:58:16;97654.47;;;8.98;100.00
64713;BME280;51140;45.340;5.980;2023-03-20T07:00:42;97644.25;;;9.10;100.00
64713;BME280;51140;45.340;5.980;2023-03-20T07:03:07;97638.41;;;9.23;100.00
64713;BME280;51140;45.340;5.980;2023-03-20T07:05:33;97626.00;;;9.28;100.00
64713;BME280;51140;45.340;5.980;2023-03-20T07:07:59;97621.81;;;9.25;100.00
64713;BME280;51140;45.340;5.980;2023-03-20T07:10:25;97608.72;;;9.27;100.00
64713;BME280;51140;45.340;5.980;2023-03-20T07:12:51;97589.59;;;9.12;100.00
64713;BME280;51140;45.340;5.980;2023-03-20T07:15:17;97565.06;;;8.86;100.00
64713;BME280;51140;45.340;5.980;2023-03-20T07:17:43;97552.44;;;8.63;100.00
64713;BME280;51140;45.340;5.980;2023-03-20T07:20:09;97541.91;;;8.66;100.00
64713;BME280;51140;45.340;5.980;2023-03-20T07:22:35;97532.19;;;8.69;100.00
64713;BME280;51140;45.340;5.980;2023-03-20T07:25:00;97539.00;;;9.03;100.00
64713;BME280;51140;45.340;5.980;2023-03-20T07:27:26;97543.16;;;9.37;100.00
64713;BME280;51140;45.340;5.980;2023-03-20T07:29:52;97527.81;;;9.33;100.00
64713;BME280;51140;45.340;5.980;2023-03-20T07:32:17;97496.56;;;9.19;100.00
64713;BME280;51140;45.340;5.980;2023-03-20T07:34:43;97492.34;;;9.32;100.00
64713;BME280;51140;45.340;5.980;2023-03-20T07:37:08;97482.22;;;9.27;100.00
64713;BME280;51140;45.340;5.980;2023-03-20T07:39:34;97474.91;;;9.34;100.00
64713;BME280;51140;45.340;5.980;2023-03-20T07:42:00;97462.94;;;9.61;100.00
64713;BME280;51140;45.340;5.980;2023-03-20T07:44:26;97440.56;;;9.87;100.00
64713;BME280;51140;45.340;5.980;2023-03-20T07:46:51;97419.09;;;10.26;100.00
64713;BME280;51140;45.340;5.980;2023-03-20T07:49:17;97376.06;;;10.62;100.00
64713;BME280;51140;45.340;5.980;2023-03-20T07:51:43;97291.78;;;11.03;100.00
64713;BME280;51140;45.340;5.980;2023-03-20T07:54:08;97188.03;;;11.33;100.00
64713;BME280;51140;45.340;5.980;2023-03-20T07:56:34;97068.47;;;11.40;100.00
64713;BME280;51140;45.340;5.980;2023-03-20T07:58:59;96961.53;;;11.28;100.00
64713;BME280;51140;45.340;5.980;2023-03-20T08:01:25;96920.69;;;10.81;100.00
64713;BME280;51140;45.340;5.980;2023-03-20T08:03:50;96901.06;;;10.02;100.00
64713;BME280;51140;45.340;5.980;2023-03-20T08:06:16;96894.78;;;10.43;100.00
64713;BME280;51140;45.340;5.980;2023-03-20T08:08:41;96883.09;;;10.73;100.00
64713;BME280;51140;45.340;5.980;2023-03-20T08:11:06;96869.91;;;10.63;100.00
64713;BME280;51140;45.340;5.980;2023-03-20T08:13:32;96813.47;;;10.75;100.00
64713;BME280;51140;45.340;5.980;2023-03-20T08:15:57;96799.50;;;10.76;100.00
64713;BME280;51140;45.340;5.980;2023-03-20T08:18:22;96785.94;;;10.48;100.00
64713;BME280;51140;45.340;5.980;2023-03-20T08:20:48;96767.00;;;10.46;100.00
64713;BME280;51140;45.340;5.980;2023-03-20T08:23:16;96741.78;;;10.93;100.00
64713;BME280;51140;45.340;5.980;2023-03-20T08:25:49;96714.31;;;11.11;100.00
64713;BME280;51140;45.340;5.980;2023-03-20T08:28:15;96659.75;;;11.86;100.00
64713;BME280;51140;45.340;5.980;2023-03-20T08:30:40;96634.06;;;12.14;100.00
64713;BME280;51140;45.340;5.980;2023-03-20T08:33:06;96614.06;;;12.45;100.00
64713;BME280;51140;45.340;5.980;2023-03-20T08:35:31;96630.34;;;12.37;100.00
64713;BME280;51140;45.340;5.980;2023-03-20T08:37:57;96608.41;;;12.19;100.00
64713;BME280;51140;45.340;5.980;2023-03-20T08:40:22;96685.28;;;11.60;100.00
64713;BME280;51140;45.340;5.980;2023-03-20T08:42:48;96737.69;;;11.57;100.00
64713;BME280;51140;45.340;5.980;2023-03-20T08:45:14;96750.13;;;11.32;100.00
64713;BME280;51140;45.340;5.980;2023-03-20T08:47:39;96759.84;;;11.41;100.00
64713;BME280;51140;45.340;5.980;2023-03-20T08:50:05;96766.75;;;11.86;100.00
64713;BME280;51140;45.340;5.980;2023-03-20T08:52:31;96776.34;;;11.86;100.00
64713;BME280;51140;45.340;5.980;2023-03-20T08:54:57;96782.03;;;12.02;100.00
64713;BME280;51140;45.340;5.980;2023-03-20T08:57:22;96760.13;;;12.26;100.00
64713;BME280;51140;45.340;5.980;2023-03-20T08:59:48;96769.63;;;12.27;100.00
64713;BME280;51140;45.340;5.980;2023-03-20T09:02:13;96769.63;;;12.27;100.00
64713;BME280;51140;45.340;5.980;2023-03-20T09:04:38;96772.41;;;12.14;100.00
64713;BME280;51140;45.340;5.980;2023-03-20T09:07:04;96765.19;;;12.38;100.00
64713;BME280;51140;45.340;5.980;2023-03-20T09:09:29;96750.16;;;12.63;100.00
64713;BME280;51140;45.340;5.980;2023-03-20T09:11:56;96750.59;;;12.68;100.00
64713;BME280;51140;45.340;5.980;2023-03-20T09:14:22;96753.25;;;12.89;100.00
64713;BME280;51140;45.340;5.980;2023-03-20T09:16:48;96740.31;;;12.87;100.00
64713;BME280;51140;45.340;5.980;2023-03-20T09:19:13;96743.34;;;12.92;100.00
64713;BME280;51140;45.340;5.980;2023-03-20T09:21:39;96744.28;;;13.12;100.00
64713;BME280;51140;45.340;5.980;2023-03-20T09:24:05;96773.84;;;12.50;100.00
64713;BME280;51140;45.340;5.980;2023-03-20T09:26:30;96736.84;;;13.07;100.00
64713;BME280;51140;45.340;5.980;2023-03-20T09:28:56;96738.13;;;13.34;100.00
64713;BME280;51140;45.340;5.980;2023-03-20T09:31:21;96760.53;;;13.15;100.00
64713;BME280;51140;45.340;5.980;2023-03-20T09:33:47;96763.97;;;13.27;100.00
64713;BME280;51140;45.340;5.980;2023-03-20T09:36:12;96771.13;;;13.25;100.00
64713;BME280;51140;45.340;5.980;2023-03-20T09:38:40;96790.50;;;13.23;100.00
64713;BME280;51140;45.340;5.980;2023-03-20T09:41:16;96775.59;;;13.44;100.00
64713;BME280;51140;45.340;5.980;2023-03-20T09:54:48;96743.63;;;14.40;100.00
64713;BME280;51140;45.340;5.980;2023-03-20T09:57:38;96758.66;;;14.38;100.00
64713;BME280;51140;45.340;5.980;2023-03-20T10:00:10;96785.94;;;14.16;100.00
64713;BME280;51140;45.340;5.980;2023-03-20T10:02:45;96810.47;;;14.15;100.00
64713;BME280;51140;45.340;5.980;2023-03-20T10:05:18;96783.34;;;14.35;100.00
64713;BME280;51140;45.340;5.980;2023-03-20T10:07:45;96782.00;;;14.41;100.00
64713;BME280;51140;45.340;5.980;2023-03-20T10:10:14;96753.88;;;14.91;100.00
64713;BME280;51140;45.340;5.980;2023-03-20T10:12:53;96767.00;;;14.82;100.00
64713;BME280;51140;45.340;5.980;2023-03-20T10:18:24;96804.25;;;14.56;100.00
64713;BME280;51140;45.340;5.980;2023-03-20T10:21:05;96773.59;;;15.24;100.00
64713;BME280;51140;45.340;5.980;2023-03-20T10:23:46;96786.97;;;15.21;100.00
64713;BME280;51140;45.340;5.980;2023-03-20T10:26:17;96546.72;;;15.01;100.00
64713;BME280;51140;45.340;5.980;2023-03-20T10:31:46;96401.47;;;15.29;100.00
64713;BME280;51140;45.340;5.980;2023-03-20T10:42:32;96334.44;;;15.79;100.00
64713;BME280;51140;45.340;5.980;2023-03-20T10:47:50;96459.22;;;15.20;100.00
64713;BME280;51140;45.340;5.980;2023-03-20T10:50:18;96431.16;;;15.65;100.00
64713;BME280;51140;45.340;5.980;2023-03-20T10:52:46;96507.75;;;14.79;100.00
64713;BME280;51140;45.340;5.980;2023-03-20T10:55:37;96430.75;;;15.60;100.00
64713;BME280;51140;45.340;5.980;2023-03-20T10:58:08;96430.13;;;15.84;100.00
64713;BME280;51140;45.340;5.980;2023-03-20T11:00:35;96455.50;;;16.27;100.00
64713;BME280;51140;45.340;5.980;2023-03-20T11:03:03;96572.81;;;15.93;100.00
64713;BME280;51140;45.340;5.980;2023-03-20T11:05:31;96566.34;;;16.23;100.00
64713;BME280;51140;45.340;5.980;2023-03-20T11:08:05;96634.47;;;15.89;100.00
64713;BME280;51140;45.340;5.980;2023-03-20T11:10:33;96671.09;;;15.35;100.00
64713;BME280;51140;45.340;5.980;2023-03-20T11:13:13;96692.13;;;15.26;100.00
64713;BME280;51140;45.340;5.980;2023-03-20T11:15:41;96701.38;;;15.11;100.00
64713;BME280;51140;45.340;5.980;2023-03-20T11:18:10;96687.41;;;15.29;100.00
64713;BME280;51140;45.340;5.980;2023-03-20T11:23:19;96730.84;;;14.66;100.00
64713;BME280;51140;45.340;5.980;2023-03-20T11:25:49;96812.50;;;13.71;100.00
64713;BME280;51140;45.340;5.980;2023-03-20T11:30:48;96775.13;;;14.50;100.00
64713;BME280;51140;45.340;5.980;2023-03-20T11:33:15;96707.53;;;15.39;100.00
64713;BME280;51140;45.340;5.980;2023-03-20T11:35:45;96785.19;;;14.73;100.00
64713;BME280;51140;45.340;5.980;2023-03-20T11:38:17;96758.84;;;15.04;100.00
64713;BME280;51140;45.340;5.980;2023-03-20T11:40:44;96804.66;;;14.71;100.00
64713;BME280;51140;45.340;5.980;2023-03-20T11:43:15;96766.81;;;15.22;100.00
64713;BME280;51140;45.340;5.980;2023-03-20T11:45:48;96847.97;;;14.56;100.00
64713;BME280;51140;45.340;5.980;2023-03-20T11:48:23;96837.47;;;14.56;100.00
64713;BME280;51140;45.340;5.980;2023-03-20T11:56:01;96725.66;;;15.32;100.00
64713;BME280;51140;45.340;5.980;2023-03-20T11:58:27;96727.72;;;15.75;100.00
64713;BME280;51140;45.340;5.980;2023-03-20T12:00:54;96821.50;;;14.97;100.00
64713;BME280;51140;45.340;5.980;2023-03-20T12:05:59;96847.94;;;15.72;100.00
64713;BME280;51140;45.340;5.980;2023-03-20T12:08:26;96858.50;;;16.26;100.00
64713;BME280;51140;45.340;5.980;2023-03-20T12:10:58;96872.72;;;17.06;100.00
64713;BME280;51140;45.340;5.980;2023-03-20T12:13:33;96918.50;;;17.13;100.00
64713;BME280;51140;45.340;5.980;2023-03-20T12:16:10;97025.69;;;16.47;100.00
64713;BME280;51140;45.340;5.980;2023-03-20T12:18:37;97018.56;;;16.67;100.00
64713;BME280;51140;45.340;5.980;2023-03-20T12:21:14;96993.16;;;17.12;100.00
64713;BME280;51140;45.340;5.980;2023-03-20T12:23:52;97102.22;;;16.15;100.00
64713;BME280;51140;45.340;5.980;2023-03-20T12:26:31;97070.03;;;16.59;100.00
64713;BME280;51140;45.340;5.980;2023-03-20T12:29:06;96916.31;;;17.44;100.00
64713;BME280;51140;45.340;5.980;2023-03-20T12:34:23;96800.38;;;17.54;100.00
64713;BME280;51140;45.340;5.980;2023-03-20T12:36:53;96779.47;;;17.27;100.00
64713;BME280;51140;45.340;5.980;2023-03-20T12:39:23;96776.84;;;16.83;100.00
64713;BME280;51140;45.340;5.980;2023-03-20T12:45:11;96613.06;;;17.75;100.00
64713;BME280;51140;45.340;5.980;2023-03-20T12:53:15;96473.19;;;16.77;100.00
64713;BME280;51140;45.340;5.980;2023-03-20T13:01:30;96423.06;;;16.71;100.00
64713;BME280;51140;45.340;5.980;2023-03-20T13:04:05;96449.31;;;16.37;100.00
64713;BME280;51140;45.340;5.980;2023-03-20T13:06:57;96437.28;;;16.26;100.00
64713;BME280;51140;45.340;5.980;2023-03-20T13:09:31;96414.16;;;16.29;100.00
64713;BME280;51140;45.340;5.980;2023-03-20T13:17:41;96371.47;;;16.70;100.00
64713;BME280;51140;45.340;5.980;2023-03-20T13:31:16;96356.50;;;16.28;100.00
64713;BME280;51140;45.340;5.980;2023-03-20T13:40:04;96435.47;;;15.75;100.00
64713;BME280;51140;45.340;5.980;2023-03-20T13:42:36;96340.19;;;16.16;100.00
64713;BME280;51140;45.340;5.980;2023-03-20T13:46:00;96332.97;;;15.84;100.00
64713;BME280;51140;45.340;5.980;2023-03-20T13:48:04;96371.34;;;15.77;100.00
64713;BME280;51140;45.340;5.980;2023-03-20T13:50:48;96326.13;;;16.34;100.00
64713;BME280;51140;45.340;5.980;2023-03-20T13:56:03;96385.06;;;16.65;100.00
64713;BME280;51140;45.340;5.980;2023-03-20T14:01:36;96406.03;;;16.91;100.00
64713;BME280;51140;45.340;5.980;2023-03-20T14:03:58;96417.63;;;16.72;100.00
64713;BME280;51140;45.340;5.980;2023-03-20T14:08:56;96400.22;;;16.71;100.00
64713;BME280;51140;45.340;5.980;2023-03-20T14:14:06;96391.81;;;16.34;100.00
64713;BME280;51140;45.340;5.980;2023-03-20T14:16:32;96391.63;;;16.27;100.00
64713;BME280;51140;45.340;5.980;2023-03-20T14:19:23;96386.97;;;16.47;100.00
64713;BME280;51140;45.340;5.980;2023-03-20T14:21:52;96393.25;;;16.54;100.00
64713;BME280;51140;45.340;5.980;2023-03-20T14:24:19;96388.31;;;16.51;100.00
64713;BME280;51140;45.340;5.980;2023-03-20T14:26:51;96373.59;;;16.74;100.00
64713;BME280;51140;45.340;5.980;2023-03-20T14:29:29;96374.50;;;16.99;100.00
64713;BME280;51140;45.340;5.980;2023-03-20T14:32:34;96368.25;;;17.08;100.00
64713;BME280;51140;45.340;5.980;2023-03-20T14:35:20;96406.03;;;16.83;100.00
64713;BME280;51140;45.340;5.980;2023-03-20T14:38:18;96433.59;;;16.79;100.00
64713;BME280;51140;45.340;5.980;2023-03-20T14:40:58;96366.13;;;17.44;100.00
64713;BME280;51140;45.340;5.980;2023-03-20T14:46:28;96421.47;;;16.86;100.00
64713;BME280;51140;45.340;5.980;2023-03-20T14:48:55;96444.28;;;16.43;100.00
64713;BME280;51140;45.340;5.980;2023-03-20T14:51:40;96410.78;;;16.45;100.00
64713;BME280;51140;45.340;5.980;2023-03-20T14:56:46;96416.41;;;16.24;100.00
64713;BME280;51140;45.340;5.980;2023-03-20T14:59:14;96428.72;;;15.98;100.00
64713;BME280;51140;45.340;5.980;2023-03-20T15:01:46;96417.47;;;15.80;100.00
64713;BME280;51140;45.340;5.980;2023-03-20T15:06:47;96365.72;;;15.54;100.00
64713;BME280;51140;45.340;5.980;2023-03-20T15:09:14;96399.78;;;14.93;100.00
64713;BME280;51140;45.340;5.980;2023-03-20T15:11:41;96443.47;;;14.84;100.00
64713;BME280;51140;45.340;5.980;2023-03-20T15:14:08;96433.44;;;14.70;100.00
64713;BME280;51140;45.340;5.980;2023-03-20T15:16:36;96407.81;;;14.64;100.00
64713;BME280;51140;45.340;5.980;2023-03-20T15:19:12;96404.53;;;14.62;100.00
64713;BME280;51140;45.340;5.980;2023-03-20T15:21:40;96412.69;;;14.59;100.00
64713;BME280;51140;45.340;5.980;2023-03-20T15:24:06;96404.13;;;14.84;100.00
64713;BME280;51140;45.340;5.980;2023-03-20T15:26:34;96395.59;;;14.82;100.00
64713;BME280;51140;45.340;5.980;2023-03-20T15:29:08;96407.59;;;14.85;100.00